sensor_id;sensor_type;location;lat;lon;timestamp;P1;durP1;ratioP1;P2;durP2;ratioP2
76348;SDS011;65172;46.764;15.406;2023-02-19T00:01:08;20.38;;;11.25;;
76348;SDS011;65172;46.764;15.406;2023-02-19T00:03:38;25.55;;;13.45;;
76348;SDS011;65172;46.764;15.406;2023-02-19T00:06:05;22.90;;;11.65;;
76348;SDS011;65172;46.764;15.406;2023-02-19T00:08:32;23.80;;;12.18;;
76348;SDS011;65172;46.764;15.406;2023-02-19T00:11:06;26.83;;;11.48;;
76348;SDS011;65172;46.764;15.406;2023-02-19T00:16:08;23.48;;;12.05;;
76348;SDS011;65172;46.764;15.406;2023-02-19T00:18:34;21.48;;;12.30;;
76348;SDS011;65172;46.764;15.406;2023-02-19T00:21:02;25.27;;;12.30;;
76348;SDS011;65172;46.764;15.406;2023-02-19T00:23:28;23.65;;;12.25;;
76348;SDS011;65172;46.764;15.406;2023-02-19T00:25:54;26.35;;;13.27;;
76348;SDS011;65172;46.764;15.406;2023-02-19T00:28:20;23.17;;;11.38;;
76348;SDS011;65172;46.764;15.406;2023-02-19T00:30:46;22.70;;;12.02;;
76348;SDS011;65172;46.764;15.406;2023-02-19T00:33:11;26.77;;;12.35;;
76348;SDS011;65172;46.764;15.406;2023-02-19T00:35:37;23.23;;;11.82;;
76348;SDS011;65172;46.764;15.406;2023-02-19T00:38:02;22.70;;;11.10;;
76348;SDS011;65172;46.764;15.406;2023-02-19T00:40:28;22.38;;;12.70;;
76348;SDS011;65172;46.764;15.406;2023-02-19T00:42:54;22.58;;;11.90;;
76348;SDS011;65172;46.764;15.406;2023-02-19T00:45:19;24.10;;;11.90;;
76348;SDS011;65172;46.764;15.406;2023-02-19T00:47:45;22.30;;;12.23;;
76348;SDS011;65172;46.764;15.406;2023-02-19T00:50:11;24.00;;;12.52;;
76348;SDS011;65172;46.764;15.406;2023-02-19T00:52:36;23.58;;;11.85;;
76348;SDS011;65172;46.764;15.406;2023-02-19T00:55:01;21.45;;;12.02;;
76348;SDS011;65172;46.764;15.406;2023-02-19T00:57:27;20.90;;;11.95;;
76348;SDS011;65172;46.764;15.406;2023-02-19T00:59:53;21.88;;;12.80;;
76348;SDS011;65172;46.764;15.406;2023-02-19T01:02:18;25.65;;;11.73;;
76348;SDS011;65172;46.764;15.406;2023-02-19T01:04:43;22.58;;;11.57;;
76348;SDS011;65172;46.764;15.406;2023-02-19T01:07:09;26.38;;;12.35;;
76348;SDS011;65172;46.764;15.406;2023-02-19T01:09:35;23.77;;;12.02;;
76348;SDS011;65172;46.764;15.406;2023-02-19T01:12:05;21.42;;;11.25;;
76348;SDS011;65172;46.764;15.406;2023-02-19T01:14:31;25.35;;;11.63;;
76348;SDS011;65172;46.764;15.406;2023-02-19T01:16:56;20.77;;;11.48;;
76348;SDS011;65172;46.764;15.406;2023-02-19T01:19:22;23.88;;;11.60;;
76348;SDS011;65172;46.764;15.406;2023-02-19T01:21:48;21.35;;;12.38;;
76348;SDS011;65172;46.764;15.406;2023-02-19T01:24:13;18.30;;;10.43;;
76348;SDS011;65172;46.764;15.406;2023-02-19T01:26:41;24.95;;;11.95;;
76348;SDS011;65172;46.764;15.406;2023-02-19T01:29:07;18.25;;;11.55;;
76348;SDS011;65172;46.764;15.406;2023-02-19T01:31:33;21.15;;;11.55;;
76348;SDS011;65172;46.764;15.406;2023-02-19T01:34:00;26.05;;;12.25;;
76348;SDS011;65172;46.764;15.406;2023-02-19T01:36:26;22.73;;;12.30;;
76348;SDS011;65172;46.764;15.406;2023-02-19T01:38:52;24.35;;;12.88;;
76348;SDS011;65172;46.764;15.406;2023-02-19T01:41:19;22.67;;;12.13;;
76348;SDS011;65172;46.764;15.406;2023-02-19T01:46:37;24.48;;;11.82;;
76348;SDS011;65172;46.764;15.406;2023-02-19T01:49:24;23.88;;;12.45;;
76348;SDS011;65172;46.764;15.406;2023-02-19T01:51:53;26.80;;;12.50;;
76348;SDS011;65172;46.764;15.406;2023-02-19T01:54:24;22.98;;;10.98;;
76348;SDS011;65172;46.764;15.406;2023-02-19T01:56:51;23.65;;;11.25;;
76348;SDS011;65172;46.764;15.406;2023-02-19T01:59:17;24.45;;;12.07;;
76348;SDS011;65172;46.764;15.406;2023-02-19T02:01:43;21.75;;;12.18;;
76348;SDS011;65172;46.764;15.406;2023-02-19T02:04:09;27.83;;;11.93;;
76348;SDS011;65172;46.764;15.406;2023-02-19T02:06:49;24.02;;;12.32;;
76348;SDS011;65172;46.764;15.406;2023-02-19T02:09:18;22.00;;;10.70;;
76348;SDS011;65172;46.764;15.406;2023-02-19T02:12:03;20.90;;;10.73;;
76348;SDS011;65172;46.764;15.406;2023-02-19T02:14:30;22.20;;;11.80;;
76348;SDS011;65172;46.764;15.406;2023-02-19T02:24:51;22.33;;;11.32;;
76348;SDS011;65172;46.764;15.406;2023-02-19T02:27:27;24.02;;;12.05;;
76348;SDS011;65172;46.764;15.406;2023-02-19T02:32:30;21.02;;;12.00;;
76348;SDS011;65172;46.764;15.406;2023-02-19T02:35:00;21.40;;;11.43;;
76348;SDS011;65172;46.764;15.406;2023-02-19T02:37:36;22.73;;;12.63;;
76348;SDS011;65172;46.764;15.406;2023-02-19T02:40:03;24.42;;;11.98;;
76348;SDS011;65172;46.764;15.406;2023-02-19T02:42:33;24.55;;;12.65;;
76348;SDS011;65172;46.764;15.406;2023-02-19T02:45:14;20.85;;;11.35;;
76348;SDS011;65172;46.764;15.406;2023-02-19T02:48:05;23.48;;;12.23;;
76348;SDS011;65172;46.764;15.406;2023-02-19T02:50:36;24.88;;;12.75;;
76348;SDS011;65172;46.764;15.406;2023-02-19T02:53:52;25.35;;;12.10;;
76348;SDS011;65172;46.764;15.406;2023-02-19T02:56:28;22.77;;;12.00;;
76348;SDS011;65172;46.764;15.406;2023-02-19T02:58:54;27.33;;;13.23;;
76348;SDS011;65172;46.764;15.406;2023-02-19T03:01:24;27.05;;;13.65;;
76348;SDS011;65172;46.764;15.406;2023-02-19T03:04:15;23.88;;;12.13;;
76348;SDS011;65172;46.764;15.406;2023-02-19T03:06:48;24.42;;;12.93;;
76348;SDS011;65172;46.764;15.406;2023-02-19T03:09:17;24.13;;;13.70;;
76348;SDS011;65172;46.764;15.406;2023-02-19T03:11:48;22.67;;;12.73;;
76348;SDS011;65172;46.764;15.406;2023-02-19T03:14:34;28.52;;;12.88;;
76348;SDS011;65172;46.764;15.406;2023-02-19T03:17:23;31.83;;;13.40;;
76348;SDS011;65172;46.764;15.406;2023-02-19T03:20:11;25.08;;;12.55;;
76348;SDS011;65172;46.764;15.406;2023-02-19T03:22:38;24.55;;;12.30;;
76348;SDS011;65172;46.764;15.406;2023-02-19T03:25:12;23.63;;;12.07;;
76348;SDS011;65172;46.764;15.406;2023-02-19T03:28:00;23.00;;;11.40;;
76348;SDS011;65172;46.764;15.406;2023-02-19T03:30:28;24.27;;;11.93;;
76348;SDS011;65172;46.764;15.406;2023-02-19T03:33:17;23.75;;;11.93;;
76348;SDS011;65172;46.764;15.406;2023-02-19T03:35:51;23.00;;;12.40;;
76348;SDS011;65172;46.764;15.406;2023-02-19T03:46:14;25.17;;;12.27;;
76348;SDS011;65172;46.764;15.406;2023-02-19T03:48:49;22.25;;;12.02;;
76348;SDS011;65172;46.764;15.406;2023-02-19T03:54:01;24.83;;;12.20;;
76348;SDS011;65172;46.764;15.406;2023-02-19T03:59:51;24.98;;;13.35;;
76348;SDS011;65172;46.764;15.406;2023-02-19T04:04:49;27.67;;;13.98;;
76348;SDS011;65172;46.764;15.406;2023-02-19T04:07:18;29.70;;;13.88;;
76348;SDS011;65172;46.764;15.406;2023-02-19T04:09:46;26.63;;;13.70;;
76348;SDS011;65172;46.764;15.406;2023-02-19T04:12:13;31.90;;;14.38;;
76348;SDS011;65172;46.764;15.406;2023-02-19T04:14:43;28.15;;;15.02;;
76348;SDS011;65172;46.764;15.406;2023-02-19T04:17:16;28.23;;;14.45;;
76348;SDS011;65172;46.764;15.406;2023-02-19T04:19:48;27.17;;;13.40;;
76348;SDS011;65172;46.764;15.406;2023-02-19T04:22:14;28.95;;;14.30;;
76348;SDS011;65172;46.764;15.406;2023-02-19T04:24:47;30.60;;;14.45;;
76348;SDS011;65172;46.764;15.406;2023-02-19T04:27:14;58.08;;;24.90;;
76348;SDS011;65172;46.764;15.406;2023-02-19T04:29:40;45.80;;;21.52;;
76348;SDS011;65172;46.764;15.406;2023-02-19T04:32:08;36.08;;;16.23;;
76348;SDS011;65172;46.764;15.406;2023-02-19T04:34:34;27.60;;;14.18;;
76348;SDS011;65172;46.764;15.406;2023-02-19T04:37:00;27.95;;;13.95;;
76348;SDS011;65172;46.764;15.406;2023-02-19T04:39:26;24.58;;;13.25;;
76348;SDS011;65172;46.764;15.406;2023-02-19T04:41:51;28.27;;;14.80;;
76348;SDS011;65172;46.764;15.406;2023-02-19T04:44:17;29.00;;;14.32;;
76348;SDS011;65172;46.764;15.406;2023-02-19T04:46:42;26.90;;;14.95;;
76348;SDS011;65172;46.764;15.406;2023-02-19T04:49:08;27.42;;;14.20;;
76348;SDS011;65172;46.764;15.406;2023-02-19T04:51:33;31.17;;;15.38;;
76348;SDS011;65172;46.764;15.406;2023-02-19T04:53:59;27.67;;;12.88;;
76348;SDS011;65172;46.764;15.406;2023-02-19T04:56:24;25.10;;;13.30;;
76348;SDS011;65172;46.764;15.406;2023-02-19T04:58:50;26.85;;;14.35;;
76348;SDS011;65172;46.764;15.406;2023-02-19T05:01:15;26.85;;;14.52;;
76348;SDS011;65172;46.764;15.406;2023-02-19T05:03:41;38.92;;;19.40;;
76348;SDS011;65172;46.764;15.406;2023-02-19T05:06:07;27.88;;;13.93;;
76348;SDS011;65172;46.764;15.406;2023-02-19T05:08:35;27.20;;;13.45;;
76348;SDS011;65172;46.764;15.406;2023-02-19T05:11:02;25.52;;;13.02;;
76348;SDS011;65172;46.764;15.406;2023-02-19T05:13:29;30.60;;;15.15;;
76348;SDS011;65172;46.764;15.406;2023-02-19T05:15:59;22.27;;;12.02;;
76348;SDS011;65172;46.764;15.406;2023-02-19T05:18:29;26.10;;;13.45;;
76348;SDS011;65172;46.764;15.406;2023-02-19T05:20:56;29.85;;;13.75;;
76348;SDS011;65172;46.764;15.406;2023-02-19T05:23:22;25.52;;;13.63;;
76348;SDS011;65172;46.764;15.406;2023-02-19T05:25:47;30.23;;;14.85;;
76348;SDS011;65172;46.764;15.406;2023-02-19T05:28:14;27.60;;;11.98;;
76348;SDS011;65172;46.764;15.406;2023-02-19T05:30:48;26.48;;;13.80;;
76348;SDS011;65172;46.764;15.406;2023-02-19T05:33:15;28.92;;;13.30;;
76348;SDS011;65172;46.764;15.406;2023-02-19T05:35:42;28.88;;;14.35;;
76348;SDS011;65172;46.764;15.406;2023-02-19T05:38:10;31.83;;;13.95;;
76348;SDS011;65172;46.764;15.406;2023-02-19T05:40:36;26.67;;;12.85;;
76348;SDS011;65172;46.764;15.406;2023-02-19T05:43:02;29.08;;;14.25;;
76348;SDS011;65172;46.764;15.406;2023-02-19T05:45:28;28.20;;;12.68;;
76348;SDS011;65172;46.764;15.406;2023-02-19T05:47:53;27.88;;;14.23;;
76348;SDS011;65172;46.764;15.406;2023-02-19T05:50:19;25.92;;;13.50;;
76348;SDS011;65172;46.764;15.406;2023-02-19T05:52:44;26.70;;;12.23;;
76348;SDS011;65172;46.764;15.406;2023-02-19T05:55:10;25.70;;;12.80;;
76348;SDS011;65172;46.764;15.406;2023-02-19T05:57:40;26.27;;;13.48;;
76348;SDS011;65172;46.764;15.406;2023-02-19T06:00:06;27.98;;;12.88;;
76348;SDS011;65172;46.764;15.406;2023-02-19T06:02:32;25.23;;;12.05;;
76348;SDS011;65172;46.764;15.406;2023-02-19T06:04:58;33.47;;;13.65;;
76348;SDS011;65172;46.764;15.406;2023-02-19T06:07:23;27.45;;;13.07;;
76348;SDS011;65172;46.764;15.406;2023-02-19T06:09:49;29.30;;;13.60;;
76348;SDS011;65172;46.764;15.406;2023-02-19T06:12:15;29.27;;;14.05;;
76348;SDS011;65172;46.764;15.406;2023-02-19T06:14:40;31.40;;;16.10;;
76348;SDS011;65172;46.764;15.406;2023-02-19T06:17:06;30.70;;;14.48;;
76348;SDS011;65172;46.764;15.406;2023-02-19T06:19:31;29.88;;;13.93;;
76348;SDS011;65172;46.764;15.406;2023-02-19T06:21:57;39.67;;;19.75;;
76348;SDS011;65172;46.764;15.406;2023-02-19T06:24:22;58.00;;;24.70;;
76348;SDS011;65172;46.764;15.406;2023-02-19T06:26:48;46.60;;;22.02;;
76348;SDS011;65172;46.764;15.406;2023-02-19T06:29:14;31.60;;;13.90;;
76348;SDS011;65172;46.764;15.406;2023-02-19T06:31:40;25.25;;;12.77;;
76348;SDS011;65172;46.764;15.406;2023-02-19T06:34:06;31.50;;;14.90;;
76348;SDS011;65172;46.764;15.406;2023-02-19T06:36:31;31.27;;;15.32;;
76348;SDS011;65172;46.764;15.406;2023-02-19T06:39:01;29.98;;;13.65;;
76348;SDS011;65172;46.764;15.406;2023-02-19T06:41:28;30.45;;;14.70;;
76348;SDS011;65172;46.764;15.406;2023-02-19T06:43:53;28.50;;;13.93;;
76348;SDS011;65172;46.764;15.406;2023-02-19T06:46:19;32.97;;;15.15;;
76348;SDS011;65172;46.764;15.406;2023-02-19T06:48:44;24.65;;;13.07;;
76348;SDS011;65172;46.764;15.406;2023-02-19T06:51:11;28.70;;;14.60;;
76348;SDS011;65172;46.764;15.406;2023-02-19T06:53:38;24.27;;;13.38;;
76348;SDS011;65172;46.764;15.406;2023-02-19T06:56:04;26.65;;;13.70;;
76348;SDS011;65172;46.764;15.406;2023-02-19T06:58:34;28.02;;;13.95;;
76348;SDS011;65172;46.764;15.406;2023-02-19T07:01:00;29.35;;;13.05;;
76348;SDS011;65172;46.764;15.406;2023-02-19T07:03:25;27.88;;;13.18;;
76348;SDS011;65172;46.764;15.406;2023-02-19T07:05:51;32.35;;;15.38;;
76348;SDS011;65172;46.764;15.406;2023-02-19T07:08:16;29.48;;;13.98;;
76348;SDS011;65172;46.764;15.406;2023-02-19T07:10:43;28.48;;;14.18;;
76348;SDS011;65172;46.764;15.406;2023-02-19T07:13:09;26.58;;;13.55;;
76348;SDS011;65172;46.764;15.406;2023-02-19T07:15:34;27.70;;;13.80;;
76348;SDS011;65172;46.764;15.406;2023-02-19T07:18:00;27.30;;;14.43;;
76348;SDS011;65172;46.764;15.406;2023-02-19T07:20:25;25.52;;;12.85;;
76348;SDS011;65172;46.764;15.406;2023-02-19T07:22:51;25.67;;;13.18;;
76348;SDS011;65172;46.764;15.406;2023-02-19T07:25:17;22.08;;;11.75;;
76348;SDS011;65172;46.764;15.406;2023-02-19T07:27:42;29.05;;;14.45;;
76348;SDS011;65172;46.764;15.406;2023-02-19T07:30:08;29.23;;;13.43;;
76348;SDS011;65172;46.764;15.406;2023-02-19T07:32:34;28.48;;;13.93;;
76348;SDS011;65172;46.764;15.406;2023-02-19T07:34:59;29.38;;;13.88;;
76348;SDS011;65172;46.764;15.406;2023-02-19T07:37:25;30.05;;;13.32;;
76348;SDS011;65172;46.764;15.406;2023-02-19T07:39:50;28.85;;;13.80;;
76348;SDS011;65172;46.764;15.406;2023-02-19T07:42:16;31.23;;;15.02;;
76348;SDS011;65172;46.764;15.406;2023-02-19T07:44:41;27.98;;;13.90;;
76348;SDS011;65172;46.764;15.406;2023-02-19T07:47:07;27.77;;;13.85;;
76348;SDS011;65172;46.764;15.406;2023-02-19T07:49:32;31.15;;;14.77;;
76348;SDS011;65172;46.764;15.406;2023-02-19T07:51:58;30.27;;;15.35;;
76348;SDS011;65172;46.764;15.406;2023-02-19T07:54:23;29.77;;;13.75;;
76348;SDS011;65172;46.764;15.406;2023-02-19T07:56:49;27.50;;;13.98;;
76348;SDS011;65172;46.764;15.406;2023-02-19T07:59:14;31.63;;;15.20;;
76348;SDS011;65172;46.764;15.406;2023-02-19T08:01:43;27.13;;;14.13;;
76348;SDS011;65172;46.764;15.406;2023-02-19T08:04:27;26.33;;;13.18;;
76348;SDS011;65172;46.764;15.406;2023-02-19T08:06:53;26.80;;;13.07;;
76348;SDS011;65172;46.764;15.406;2023-02-19T08:09:18;28.02;;;14.10;;
76348;SDS011;65172;46.764;15.406;2023-02-19T08:11:44;27.52;;;13.07;;
76348;SDS011;65172;46.764;15.406;2023-02-19T08:14:28;26.63;;;13.57;;
76348;SDS011;65172;46.764;15.406;2023-02-19T08:16:53;27.77;;;14.32;;
76348;SDS011;65172;46.764;15.406;2023-02-19T08:19:20;26.20;;;13.00;;
76348;SDS011;65172;46.764;15.406;2023-02-19T08:21:45;27.10;;;13.20;;
76348;SDS011;65172;46.764;15.406;2023-02-19T08:24:11;30.08;;;13.73;;
76348;SDS011;65172;46.764;15.406;2023-02-19T08:26:36;27.92;;;13.30;;
76348;SDS011;65172;46.764;15.406;2023-02-19T08:29:02;32.50;;;13.60;;
76348;SDS011;65172;46.764;15.406;2023-02-19T08:31:29;29.13;;;13.38;;
76348;SDS011;65172;46.764;15.406;2023-02-19T08:33:55;27.50;;;13.35;;
76348;SDS011;65172;46.764;15.406;2023-02-19T08:36:20;24.73;;;12.57;;
76348;SDS011;65172;46.764;15.406;2023-02-19T08:38:46;25.80;;;13.85;;
76348;SDS011;65172;46.764;15.406;2023-02-19T08:41:12;28.58;;;13.95;;
76348;SDS011;65172;46.764;15.406;2023-02-19T08:43:38;25.80;;;13.60;;
76348;SDS011;65172;46.764;15.406;2023-02-19T08:46:04;25.50;;;12.30;;
76348;SDS011;65172;46.764;15.406;2023-02-19T08:48:31;26.65;;;12.43;;
76348;SDS011;65172;46.764;15.406;2023-02-19T08:51:02;28.27;;;12.27;;
76348;SDS011;65172;46.764;15.406;2023-02-19T08:53:32;29.83;;;14.13;;
76348;SDS011;65172;46.764;15.406;2023-02-19T08:56:03;25.65;;;11.90;;
76348;SDS011;65172;46.764;15.406;2023-02-19T08:58:29;24.63;;;12.23;;
76348;SDS011;65172;46.764;15.406;2023-02-19T09:00:56;26.45;;;12.98;;
76348;SDS011;65172;46.764;15.406;2023-02-19T09:03:22;28.40;;;12.77;;
76348;SDS011;65172;46.764;15.406;2023-02-19T09:05:48;26.10;;;12.77;;
76348;SDS011;65172;46.764;15.406;2023-02-19T09:08:13;24.95;;;13.88;;
76348;SDS011;65172;46.764;15.406;2023-02-19T09:10:40;25.05;;;12.50;;
76348;SDS011;65172;46.764;15.406;2023-02-19T09:13:05;26.88;;;12.68;;
76348;SDS011;65172;46.764;15.406;2023-02-19T09:15:31;24.08;;;12.27;;
76348;SDS011;65172;46.764;15.406;2023-02-19T09:17:58;24.50;;;11.82;;
76348;SDS011;65172;46.764;15.406;2023-02-19T09:20:24;23.23;;;11.55;;
76348;SDS011;65172;46.764;15.406;2023-02-19T09:22:55;23.73;;;12.95;;
76348;SDS011;65172;46.764;15.406;2023-02-19T09:25:21;25.17;;;12.63;;
76348;SDS011;65172;46.764;15.406;2023-02-19T09:27:47;23.08;;;11.73;;
76348;SDS011;65172;46.764;15.406;2023-02-19T09:30:12;22.33;;;11.30;;
76348;SDS011;65172;46.764;15.406;2023-02-19T09:32:38;24.08;;;12.43;;
76348;SDS011;65172;46.764;15.406;2023-02-19T09:35:03;20.05;;;11.52;;
76348;SDS011;65172;46.764;15.406;2023-02-19T09:37:29;24.02;;;12.15;;
76348;SDS011;65172;46.764;15.406;2023-02-19T09:39:55;23.05;;;11.60;;
76348;SDS011;65172;46.764;15.406;2023-02-19T09:42:24;24.77;;;12.75;;
76348;SDS011;65172;46.764;15.406;2023-02-19T09:44:53;21.10;;;11.02;;
76348;SDS011;65172;46.764;15.406;2023-02-19T09:47:24;18.80;;;10.85;;
76348;SDS011;65172;46.764;15.406;2023-02-19T09:50:07;22.17;;;11.05;;
76348;SDS011;65172;46.764;15.406;2023-02-19T09:52:50;23.15;;;10.38;;
76348;SDS011;65172;46.764;15.406;2023-02-19T09:57:58;21.63;;;10.98;;
76348;SDS011;65172;46.764;15.406;2023-02-19T10:00:25;21.98;;;11.27;;
76348;SDS011;65172;46.764;15.406;2023-02-19T10:03:03;19.35;;;11.25;;
76348;SDS011;65172;46.764;15.406;2023-02-19T10:05:30;20.63;;;11.93;;
76348;SDS011;65172;46.764;15.406;2023-02-19T10:07:57;18.90;;;10.80;;
76348;SDS011;65172;46.764;15.406;2023-02-19T10:10:27;17.83;;;9.85;;
76348;SDS011;65172;46.764;15.406;2023-02-19T10:13:17;20.02;;;10.30;;
76348;SDS011;65172;46.764;15.406;2023-02-19T10:15:51;16.23;;;9.75;;
76348;SDS011;65172;46.764;15.406;2023-02-19T10:18:25;16.95;;;10.00;;
76348;SDS011;65172;46.764;15.406;2023-02-19T10:20:55;19.98;;;10.55;;
76348;SDS011;65172;46.764;15.406;2023-02-19T10:23:21;17.13;;;9.85;;
76348;SDS011;65172;46.764;15.406;2023-02-19T10:25:51;22.13;;;12.32;;
76348;SDS011;65172;46.764;15.406;2023-02-19T10:28:30;15.75;;;9.50;;
76348;SDS011;65172;46.764;15.406;2023-02-19T10:30:59;18.58;;;10.23;;
76348;SDS011;65172;46.764;15.406;2023-02-19T10:33:26;15.00;;;9.48;;
76348;SDS011;65172;46.764;15.406;2023-02-19T10:36:02;20.08;;;10.65;;
76348;SDS011;65172;46.764;15.406;2023-02-19T10:41:06;16.35;;;9.30;;
76348;SDS011;65172;46.764;15.406;2023-02-19T10:43:37;56.75;;;24.52;;
76348;SDS011;65172;46.764;15.406;2023-02-19T10:46:12;16.45;;;8.68;;
76348;SDS011;65172;46.764;15.406;2023-02-19T10:48:45;19.88;;;11.27;;
76348;SDS011;65172;46.764;15.406;2023-02-19T10:51:14;67.72;;;31.52;;
76348;SDS011;65172;46.764;15.406;2023-02-19T10:53:45;26.92;;;13.07;;
76348;SDS011;65172;46.764;15.406;2023-02-19T10:56:15;13.15;;;8.43;;
76348;SDS011;65172;46.764;15.406;2023-02-19T10:58:50;13.23;;;8.48;;
76348;SDS011;65172;46.764;15.406;2023-02-19T11:01:23;16.20;;;9.32;;
76348;SDS011;65172;46.764;15.406;2023-02-19T11:03:51;19.08;;;11.30;;
76348;SDS011;65172;46.764;15.406;2023-02-19T11:06:36;16.15;;;9.40;;
76348;SDS011;65172;46.764;15.406;2023-02-19T11:09:02;19.63;;;11.68;;
76348;SDS011;65172;46.764;15.406;2023-02-19T11:11:29;13.05;;;8.50;;
76348;SDS011;65172;46.764;15.406;2023-02-19T11:14:03;13.18;;;8.15;;
76348;SDS011;65172;46.764;15.406;2023-02-19T11:16:43;13.57;;;8.20;;
76348;SDS011;65172;46.764;15.406;2023-02-19T11:22:00;18.65;;;12.13;;
76348;SDS011;65172;46.764;15.406;2023-02-19T11:24:28;12.38;;;7.13;;
76348;SDS011;65172;46.764;15.406;2023-02-19T11:26:58;11.60;;;7.63;;
76348;SDS011;65172;46.764;15.406;2023-02-19T11:29:25;10.13;;;6.50;;
76348;SDS011;65172;46.764;15.406;2023-02-19T11:32:11;11.07;;;6.85;;
76348;SDS011;65172;46.764;15.406;2023-02-19T11:34:51;9.10;;;5.50;;
76348;SDS011;65172;46.764;15.406;2023-02-19T11:37:28;8.05;;;5.53;;
76348;SDS011;65172;46.764;15.406;2023-02-19T11:39:54;10.68;;;5.85;;
76348;SDS011;65172;46.764;15.406;2023-02-19T11:42:25;9.80;;;6.22;;
76348;SDS011;65172;46.764;15.406;2023-02-19T11:48:03;11.45;;;6.28;;
76348;SDS011;65172;46.764;15.406;2023-02-19T11:53:33;11.32;;;6.68;;
76348;SDS011;65172;46.764;15.406;2023-02-19T12:01:46;11.10;;;6.20;;
76348;SDS011;65172;46.764;15.406;2023-02-19T12:26:02;7.13;;;5.65;;
76348;SDS011;65172;46.764;15.406;2023-02-19T12:31:53;8.02;;;5.28;;
76348;SDS011;65172;46.764;15.406;2023-02-19T12:47:58;5.07;;;3.22;;
76348;SDS011;65172;46.764;15.406;2023-02-19T12:50:26;5.07;;;3.63;;
76348;SDS011;65172;46.764;15.406;2023-02-19T12:53:22;3.20;;;2.30;;
76348;SDS011;65172;46.764;15.406;2023-02-19T12:55:43;5.50;;;3.00;;
76348;SDS011;65172;46.764;15.406;2023-02-19T12:58:17;3.03;;;2.40;;
76348;SDS011;65172;46.764;15.406;2023-02-19T13:00:52;4.43;;;2.20;;
76348;SDS011;65172;46.764;15.406;2023-02-19T13:06:15;1.60;;;1.10;;
76348;SDS011;65172;46.764;15.406;2023-02-19T13:08:59;3.58;;;1.27;;
76348;SDS011;65172;46.764;15.406;2023-02-19T13:11:35;2.22;;;1.45;;
76348;SDS011;65172;46.764;15.406;2023-02-19T13:17:00;1.50;;;0.80;;
76348;SDS011;65172;46.764;15.406;2023-02-19T13:19:33;0.82;;;0.55;;
76348;SDS011;65172;46.764;15.406;2023-02-19T13:23:04;1.02;;;0.57;;
76348;SDS011;65172;46.764;15.406;2023-02-19T13:25:30;1.48;;;0.73;;
76348;SDS011;65172;46.764;15.406;2023-02-19T13:28:19;1.77;;;0.70;;
76348;SDS011;65172;46.764;15.406;2023-02-19T13:36:05;2.08;;;0.40;;
76348;SDS011;65172;46.764;15.406;2023-02-19T13:38:51;9.25;;;0.50;;
76348;SDS011;65172;46.764;15.406;2023-02-19T13:44:04;2.70;;;0.50;;
76348;SDS011;65172;46.764;15.406;2023-02-19T13:46:39;1.42;;;0.38;;
76348;SDS011;65172;46.764;15.406;2023-02-19T13:54:24;2.58;;;0.52;;
76348;SDS011;65172;46.764;15.406;2023-02-19T13:59:42;1.33;;;0.40;;
76348;SDS011;65172;46.764;15.406;2023-02-19T14:17:24;0.40;;;0.32;;
76348;SDS011;65172;46.764;15.406;2023-02-19T14:19:53;0.77;;;0.20;;
76348;SDS011;65172;46.764;15.406;2023-02-19T14:33:17;0.60;;;0.50;;
76348;SDS011;65172;46.764;15.406;2023-02-19T14:35:46;0.47;;;0.40;;
76348;SDS011;65172;46.764;15.406;2023-02-19T14:38:17;0.57;;;0.40;;
76348;SDS011;65172;46.764;15.406;2023-02-19T14:40:46;0.60;;;0.30;;
76348;SDS011;65172;46.764;15.406;2023-02-19T14:43:16;2.05;;;0.35;;
76348;SDS011;65172;46.764;15.406;2023-02-19T14:45:46;2.67;;;0.30;;
76348;SDS011;65172;46.764;15.406;2023-02-19T14:48:16;3.72;;;0.43;;
76348;SDS011;65172;46.764;15.406;2023-02-19T14:50:55;1.60;;;0.85;;
76348;SDS011;65172;46.764;15.406;2023-02-19T14:53:23;0.55;;;0.40;;
76348;SDS011;65172;46.764;15.406;2023-02-19T14:55:50;1.02;;;0.45;;
76348;SDS011;65172;46.764;15.406;2023-02-19T14:58:19;1.00;;;0.50;;
76348;SDS011;65172;46.764;15.406;2023-02-19T15:00:48;0.88;;;0.45;;
76348;SDS011;65172;46.764;15.406;2023-02-19T15:06:06;0.38;;;0.30;;
76348;SDS011;65172;46.764;15.406;2023-02-19T15:08:43;0.80;;;0.30;;
76348;SDS011;65172;46.764;15.406;2023-02-19T15:11:16;2.13;;;0.80;;
76348;SDS011;65172;46.764;15.406;2023-02-19T15:13:51;2.53;;;0.60;;
76348;SDS011;65172;46.764;15.406;2023-02-19T15:16:21;3.80;;;0.60;;
76348;SDS011;65172;46.764;15.406;2023-02-19T15:18:48;3.25;;;1.00;;
76348;SDS011;65172;46.764;15.406;2023-02-19T15:21:23;3.08;;;0.98;;
76348;SDS011;65172;46.764;15.406;2023-02-19T15:23:55;2.42;;;0.73;;
76348;SDS011;65172;46.764;15.406;2023-02-19T15:26:26;4.78;;;0.50;;
76348;SDS011;65172;46.764;15.406;2023-02-19T15:29:11;2.05;;;0.32;;
76348;SDS011;65172;46.764;15.406;2023-02-19T15:31:57;1.23;;;0.60;;
76348;SDS011;65172;46.764;15.406;2023-02-19T15:34:25;3.53;;;0.50;;
76348;SDS011;65172;46.764;15.406;2023-02-19T15:36:54;0.38;;;0.30;;
76348;SDS011;65172;46.764;15.406;2023-02-19T15:39:33;2.08;;;0.55;;
76348;SDS011;65172;46.764;15.406;2023-02-19T15:42:01;0.93;;;0.52;;
76348;SDS011;65172;46.764;15.406;2023-02-19T15:46:57;1.05;;;0.50;;
76348;SDS011;65172;46.764;15.406;2023-02-19T15:49:26;3.95;;;0.73;;
76348;SDS011;65172;46.764;15.406;2023-02-19T15:52:02;0.88;;;0.52;;
76348;SDS011;65172;46.764;15.406;2023-02-19T15:54:32;0.63;;;0.40;;
76348;SDS011;65172;46.764;15.406;2023-02-19T15:57:05;0.73;;;0.30;;
76348;SDS011;65172;46.764;15.406;2023-02-19T15:59:47;1.15;;;0.30;;
76348;SDS011;65172;46.764;15.406;2023-02-19T16:02:20;0.70;;;0.30;;
76348;SDS011;65172;46.764;15.406;2023-02-19T16:04:46;0.40;;;0.30;;
76348;SDS011;65172;46.764;15.406;2023-02-19T16:07:26;1.13;;;0.35;;
76348;SDS011;65172;46.764;15.406;2023-02-19T16:12:57;0.20;;;0.20;;
76348;SDS011;65172;46.764;15.406;2023-02-19T16:15:25;0.75;;;0.30;;
76348;SDS011;65172;46.764;15.406;2023-02-19T16:17:51;1.55;;;0.30;;
76348;SDS011;65172;46.764;15.406;2023-02-19T16:20:22;1.85;;;0.25;;
76348;SDS011;65172;46.764;15.406;2023-02-19T16:23:02;1.75;;;0.20;;
76348;SDS011;65172;46.764;15.406;2023-02-19T16:25:39;0.52;;;0.20;;
76348;SDS011;65172;46.764;15.406;2023-02-19T16:28:17;0.47;;;0.20;;
76348;SDS011;65172;46.764;15.406;2023-02-19T16:30:45;0.85;;;0.20;;
76348;SDS011;65172;46.764;15.406;2023-02-19T16:47:02;0.22;;;0.20;;
76348;SDS011;65172;46.764;15.406;2023-02-19T16:49:30;0.90;;;0.30;;
76348;SDS011;65172;46.764;15.406;2023-02-19T16:51:58;0.70;;;0.45;;
76348;SDS011;65172;46.764;15.406;2023-02-19T16:54:25;0.60;;;0.38;;
76348;SDS011;65172;46.764;15.406;2023-02-19T16:56:52;0.80;;;0.47;;
76348;SDS011;65172;46.764;15.406;2023-02-19T16:59:19;0.85;;;0.28;;
76348;SDS011;65172;46.764;15.406;2023-02-19T17:01:45;0.77;;;0.30;;
76348;SDS011;65172;46.764;15.406;2023-02-19T17:04:12;0.43;;;0.30;;
76348;SDS011;65172;46.764;15.406;2023-02-19T17:06:39;0.50;;;0.30;;
76348;SDS011;65172;46.764;15.406;2023-02-19T17:09:06;0.35;;;0.28;;
76348;SDS011;65172;46.764;15.406;2023-02-19T17:11:33;0.95;;;0.32;;